Time;durP1;ratioP1;P1;durP2;ratioP2;P2;SDS_P1;SDS_P2;PMS_P1;PMS_P2;Temp;Humidity;BMP_temperature;BMP_pressure;BME280_temperature;BME280_humidity;BME280_pressure;Samples;Min_cycle;Max_cycle;Signal;HPM_P1;HPM_P2
2023/12/26 00:02:12;;;;;;;21.15;9.43;;;;;;;;;;10536909;28;20040;-70
2023/12/26 00:07:13;;;;;;;12.82;8.98;;;;;;;;;;10536564;28;20028;-70
2023/12/26 00:12:13;;;;;;;12.80;8.48;;;;;;;;;;10536785;28;20028;-70
2023/12/26 00:17:14;;;;;;;14.23;8.05;;;;;;;;;;10537125;28;20137;-70
2023/12/26 00:22:14;;;;;;;11.45;7.90;;;;;;;;;;10536282;28;20020;-72
2023/12/26 00:27:15;;;;;;;17.65;8.50;;;;;;;;;;10535918;28;20405;-72
2023/12/26 00:32:17;;;;;;;14.93;9.13;;;;;;;;;;10535798;28;20024;-72
2023/12/26 00:37:17;;;;;;;13.00;8.63;;;;;;;;;;10535957;28;20034;-71
2023/12/26 00:42:19;;;;;;;14.02;8.23;;;;;;;;;;10535656;28;20025;-71
2023/12/26 00:47:20;;;;;;;13.63;8.43;;;;;;;;;;10517438;28;20021;-68
2023/12/26 00:52:21;;;;;;;12.07;8.30;;;;;;;;;;10534605;28;20036;-67
2023/12/26 00:57:21;;;;;;;15.13;8.77;;;;;;;;;;10534582;28;20036;-68
2023/12/26 01:02:22;;;;;;;14.70;7.90;;;;;;;;;;10534505;28;20514;-71
2023/12/26 01:07:23;;;;;;;10.32;7.20;;;;;;;;;;10534437;28;20028;-74
2023/12/26 01:12:24;;;;;;;9.63;7.43;;;;;;;;;;10534564;28;20020;-74
2023/12/26 01:17:24;;;;;;;11.25;7.68;;;;;;;;;;10533778;28;20388;-74
2023/12/26 01:22:25;;;;;;;15.00;7.45;;;;;;;;;;10533838;28;20467;-74
2023/12/26 01:27:25;;;;;;;10.73;7.53;;;;;;;;;;10533441;28;20119;-73
2023/12/26 01:32:26;;;;;;;10.48;7.30;;;;;;;;;;10533949;28;20484;-72
2023/12/26 01:37:27;;;;;;;9.68;7.93;;;;;;;;;;10533192;28;20372;-72
2023/12/26 01:42:28;;;;;;;11.68;7.82;;;;;;;;;;10515222;28;20077;-73
2023/12/26 01:47:28;;;;;;;9.63;7.20;;;;;;;;;;10533007;28;20020;-73
2023/12/26 01:52:30;;;;;;;11.25;7.38;;;;;;;;;;10533413;28;20020;-68
2023/12/26 01:57:32;;;;;;;13.40;7.20;;;;;;;;;;10532465;28;20063;-69
2023/12/26 02:02:33;;;;;;;10.40;7.15;;;;;;;;;;10527267;22;20127;-59
2023/12/26 02:07:34;;;;;;;11.15;6.65;;;;;;;;;;10514461;28;20459;-60
2023/12/26 02:12:35;;;;;;;8.68;6.65;;;;;;;;;;10532785;28;20024;-59
2023/12/26 02:17:35;;;;;;;13.13;7.63;;;;;;;;;;10530734;28;20479;-60
2023/12/26 02:22:36;;;;;;;9.60;7.05;;;;;;;;;;10531329;28;20439;-60
2023/12/26 02:27:37;;;;;;;10.75;7.22;;;;;;;;;;10531880;28;20051;-60
2023/12/26 02:32:40;;;;;;;11.70;7.05;;;;;;;;;;10530691;28;20031;-60
2023/12/26 02:37:41;;;;;;;9.73;7.10;;;;;;;;;;10513727;28;20032;-59
2023/12/26 02:42:42;;;;;;;11.38;6.70;;;;;;;;;;10530987;28;20020;-58
2023/12/26 02:47:42;;;;;;;9.07;6.22;;;;;;;;;;10532062;28;20211;-59
2023/12/26 02:52:43;;;;;;;8.55;6.80;;;;;;;;;;10532005;28;20052;-59
2023/12/26 02:57:44;;;;;;;8.63;6.70;;;;;;;;;;10531181;28;20403;-58
2023/12/26 03:02:44;;;;;;;6.88;6.13;;;;;;;;;;10531114;28;20040;-58
2023/12/26 03:07:45;;;;;;;9.55;6.65;;;;;;;;;;10531275;28;20024;-59
2023/12/26 03:12:46;;;;;;;10.85;6.63;;;;;;;;;;10531696;28;20043;-58
2023/12/26 03:17:46;;;;;;;7.68;6.20;;;;;;;;;;10530900;28;20028;-59
2023/12/26 03:22:47;;;;;;;9.70;6.80;;;;;;;;;;10537448;28;20437;-60
2023/12/26 03:27:48;;;;;;;8.88;6.13;;;;;;;;;;10537878;28;20024;-60
2023/12/26 03:32:48;;;;;;;9.27;6.47;;;;;;;;;;10537861;28;20255;-60
2023/12/26 03:37:49;;;;;;;7.68;5.60;;;;;;;;;;10537706;28;20035;-60
2023/12/26 03:42:50;;;;;;;7.75;6.03;;;;;;;;;;10537647;28;20063;-59
2023/12/26 03:47:52;;;;;;;8.48;6.00;;;;;;;;;;10537651;28;20032;-59
2023/12/26 03:52:52;;;;;;;7.45;5.85;;;;;;;;;;10537042;28;20036;-60
2023/12/26 03:57:53;;;;;;;11.55;6.28;;;;;;;;;;10536836;28;20070;-59
2023/12/26 04:02:53;;;;;;;7.55;5.70;;;;;;;;;;10536545;28;20050;-59
2023/12/26 04:07:54;;;;;;;7.80;5.53;;;;;;;;;;10536636;28;20051;-60
2023/12/26 04:12:56;;;;;;;8.05;6.55;;;;;;;;;;10518253;28;20020;-60
2023/12/26 04:17:58;;;;;;;9.38;6.32;;;;;;;;;;10536446;28;20032;-60
2023/12/26 04:22:59;;;;;;;6.38;5.72;;;;;;;;;;10536054;28;20063;-59
2023/12/26 04:27:59;;;;;;;6.63;5.72;;;;;;;;;;10535542;28;20020;-60
2023/12/26 04:33:00;;;;;;;8.52;5.65;;;;;;;;;;10535487;28;20422;-60
2023/12/26 04:38:01;;;;;;;7.13;6.07;;;;;;;;;;10535571;28;20032;-59
2023/12/26 04:43:02;;;;;;;6.53;5.63;;;;;;;;;;10535142;28;20020;-59
2023/12/26 04:48:05;;;;;;;11.35;5.80;;;;;;;;;;10534865;28;20028;-58
2023/12/26 04:53:06;;;;;;;6.53;5.47;;;;;;;;;;10534772;28;20532;-59
2023/12/26 04:58:07;;;;;;;8.32;5.93;;;;;;;;;;10534929;28;20043;-59
2023/12/26 05:03:08;;;;;;;6.70;5.60;;;;;;;;;;10535108;28;20055;-59
2023/12/26 05:08:08;;;;;;;6.35;5.50;;;;;;;;;;10534522;28;20427;-59
2023/12/26 05:13:09;;;;;;;8.10;5.93;;;;;;;;;;10534044;28;20016;-59
2023/12/26 05:18:09;;;;;;;6.75;5.78;;;;;;;;;;10533677;28;20495;-59
2023/12/26 05:23:10;;;;;;;7.93;5.82;;;;;;;;;;10533672;28;20055;-59
2023/12/26 05:28:11;;;;;;;6.18;5.53;;;;;;;;;;10533504;28;20028;-59
2023/12/26 05:33:11;;;;;;;7.13;5.40;;;;;;;;;;10532648;28;20027;-58
2023/12/26 05:38:12;;;;;;;7.30;5.47;;;;;;;;;;10533068;28;20042;-59
2023/12/26 05:43:12;;;;;;;8.02;6.05;;;;;;;;;;10532644;28;20382;-60
2023/12/26 05:48:13;;;;;;;6.43;5.32;;;;;;;;;;10533254;28;20024;-58
2023/12/26 05:53:14;;;;;;;7.20;5.10;;;;;;;;;;10533293;28;20221;-58
2023/12/26 05:58:15;;;;;;;6.80;4.88;;;;;;;;;;10532949;28;20225;-58
2023/12/26 06:03:15;;;;;;;6.55;5.15;;;;;;;;;;10533158;28;20545;-58
2023/12/26 06:08:17;;;;;;;6.13;5.45;;;;;;;;;;10532144;28;20025;-59
2023/12/26 06:13:17;;;;;;;7.00;5.07;;;;;;;;;;10532729;28;20081;-59
2023/12/26 06:18:18;;;;;;;7.03;5.53;;;;;;;;;;10531863;28;20020;-59
2023/12/26 06:23:18;;;;;;;6.10;5.07;;;;;;;;;;10531939;28;20514;-60
2023/12/26 06:28:19;;;;;;;6.35;4.72;;;;;;;;;;10531755;28;20017;-60
2023/12/26 06:33:20;;;;;;;5.07;4.25;;;;;;;;;;10531840;28;20028;-60
2023/12/26 06:38:20;;;;;;;6.93;5.30;;;;;;;;;;10531485;28;20035;-59
2023/12/26 06:43:21;;;;;;;6.00;5.35;;;;;;;;;;10531586;28;20024;-59
2023/12/26 06:48:21;;;;;;;6.93;5.13;;;;;;;;;;10532165;28;20035;-59
2023/12/26 06:53:22;;;;;;;7.28;5.35;;;;;;;;;;10531635;28;20399;-59
2023/12/26 06:58:23;;;;;;;6.60;4.72;;;;;;;;;;10538932;28;20020;-59
2023/12/26 07:03:24;;;;;;;6.22;5.18;;;;;;;;;;10539135;28;20046;-60
2023/12/26 07:08:25;;;;;;;6.00;4.95;;;;;;;;;;10539155;28;20103;-60
2023/12/26 07:13:25;;;;;;;5.40;4.75;;;;;;;;;;10538573;28;20028;-59
2023/12/26 07:18:26;;;;;;;6.93;5.40;;;;;;;;;;10538424;28;20444;-60
2023/12/26 07:23:26;;;;;;;5.20;4.55;;;;;;;;;;10538714;28;20028;-60
2023/12/26 07:28:27;;;;;;;5.57;4.95;;;;;;;;;;10537988;28;20021;-58
2023/12/26 07:33:28;;;;;;;6.53;4.72;;;;;;;;;;10538108;28;20070;-59
2023/12/26 07:38:28;;;;;;;5.43;4.55;;;;;;;;;;10538055;28;20421;-59
2023/12/26 07:43:29;;;;;;;6.75;5.03;;;;;;;;;;10538276;28;20035;-58
2023/12/26 07:48:30;;;;;;;6.35;4.85;;;;;;;;;;10519344;28;20031;-59
2023/12/26 07:53:30;;;;;;;5.15;4.65;;;;;;;;;;10536956;28;20035;-59
2023/12/26 07:58:31;;;;;;;5.15;4.28;;;;;;;;;;10536536;28;20039;-59
2023/12/26 08:03:31;;;;;;;5.70;4.50;;;;;;;;;;10536881;28;20040;-60
2023/12/26 08:08:32;;;;;;;5.22;4.38;;;;;;;;;;10535754;28;20028;-59
2023/12/26 08:13:32;;;;;;;6.40;4.88;;;;;;;;;;10536160;28;20475;-59
2023/12/26 08:18:34;;;;;;;5.10;4.45;;;;;;;;;;10535893;28;20027;-59
2023/12/26 08:23:36;;;;;;;4.88;4.32;;;;;;;;;;10535721;28;20372;-60
2023/12/26 08:28:36;;;;;;;4.70;4.30;;;;;;;;;;10535503;28;20023;-60
2023/12/26 08:33:37;;;;;;;6.45;4.78;;;;;;;;;;10536080;28;20379;-59
2023/12/26 08:38:39;;;;;;;6.30;4.57;;;;;;;;;;10535943;28;20032;-59
2023/12/26 08:43:40;;;;;;;12.35;5.65;;;;;;;;;;10535272;28;20032;-59
2023/12/26 08:48:40;;;;;;;10.48;6.00;;;;;;;;;;10535579;28;20028;-59
2023/12/26 08:53:41;;;;;;;9.18;6.85;;;;;;;;;;10534702;28;20472;-59
2023/12/26 08:58:42;;;;;;;18.08;7.65;;;;;;;;;;10534002;28;20028;-58
2023/12/26 09:03:43;;;;;;;13.43;8.20;;;;;;;;;;10534413;28;20016;-59
2023/12/26 09:08:43;;;;;;;11.98;7.70;;;;;;;;;;10534828;28;20040;-57
2023/12/26 09:13:44;;;;;;;9.65;8.35;;;;;;;;;;10533867;28;20020;-59
2023/12/26 09:18:44;;;;;;;12.80;8.93;;;;;;;;;;10532326;28;20028;-58
2023/12/26 09:23:45;;;;;;;13.88;8.98;;;;;;;;;;10533447;28;20024;-58
2023/12/26 09:28:46;;;;;;;12.55;9.48;;;;;;;;;;10534101;28;20036;-59
2023/12/26 09:33:47;;;;;;;16.38;10.05;;;;;;;;;;10532895;28;20028;-59
2023/12/26 09:38:47;;;;;;;13.40;9.20;;;;;;;;;;10533628;28;20085;-59
2023/12/26 09:43:48;;;;;;;12.75;9.82;;;;;;;;;;10533215;28;20054;-57
2023/12/26 09:48:49;;;;;;;21.77;10.90;;;;;;;;;;10531796;28;20035;-56
2023/12/26 09:53:59;;;;;;;23.30;10.68;;;;;;;;;;10531449;28;20506;-57
2023/12/26 09:59:01;;;;;;;15.57;9.85;;;;;;;;;;10531904;28;20097;-55
2023/12/26 10:04:03;;;;;;;20.25;10.80;;;;;;;;;;10531060;28;20387;-56
2023/12/26 10:09:04;;;;;;;18.83;10.55;;;;;;;;;;10532394;28;20044;-57
2023/12/26 10:14:04;;;;;;;14.48;9.75;;;;;;;;;;10531164;28;20020;-56
2023/12/26 10:19:12;;;;;;;13.10;10.38;;;;;;;;;;10531884;28;20039;-56
2023/12/26 10:24:12;;;;;;;14.40;10.57;;;;;;;;;;10532666;28;20032;-54
2023/12/26 10:29:14;;;;;;;24.05;10.40;;;;;;;;;;10534876;28;20039;-56
2023/12/26 10:34:19;;;;;;;16.13;9.90;;;;;;;;;;10540692;28;20111;-56
2023/12/26 10:39:19;;;;;;;17.02;9.30;;;;;;;;;;10540267;28;20448;-56
2023/12/26 10:44:25;;;;;;;19.98;10.23;;;;;;;;;;10540186;28;20028;-56
2023/12/26 10:49:26;;;;;;;15.27;10.40;;;;;;;;;;10523369;28;20176;-58
2023/12/26 10:54:28;;;;;;;13.48;9.55;;;;;;;;;;10539762;28;20031;-52
2023/12/26 13:55:46;;;;;;;10.57;9.32;;;;;;;;;;10533783;28;20027;-56
2023/12/26 14:01:43;;;;;;;14.48;9.45;;;;;;;;;;10532960;28;20048;-56
2023/12/26 14:07:43;;;;;;;10.13;8.90;;;;;;;;;;10532791;28;20024;-57
2023/12/26 14:12:44;;;;;;;10.75;8.65;;;;;;;;;;10532446;28;20579;-57
2023/12/26 14:17:45;;;;;;;13.27;9.07;;;;;;;;;;10532702;28;20039;-57
2023/12/26 14:22:45;;;;;;;10.30;8.98;;;;;;;;;;10532895;28;20039;-57
2023/12/26 14:27:46;;;;;;;11.15;8.80;;;;;;;;;;10532150;28;20024;-57
2023/12/26 14:32:46;;;;;;;11.25;8.98;;;;;;;;;;10531980;28;20043;-57
2023/12/26 14:37:47;;;;;;;11.25;9.02;;;;;;;;;;10531812;28;20267;-58
2023/12/26 14:42:47;;;;;;;11.30;8.90;;;;;;;;;;10531923;28;20341;-57
2023/12/26 14:47:48;;;;;;;10.27;8.98;;;;;;;;;;10531628;28;20388;-58
2023/12/26 14:52:48;;;;;;;10.27;8.95;;;;;;;;;;10532089;28;20028;-58
2023/12/26 14:57:49;;;;;;;11.63;9.15;;;;;;;;;;10531370;28;20035;-56
2023/12/26 15:02:50;;;;;;;11.88;9.18;;;;;;;;;;10531276;28;20046;-56
2023/12/26 15:07:50;;;;;;;13.88;9.77;;;;;;;;;;10531709;28;20112;-56
2023/12/26 15:12:51;;;;;;;10.35;9.25;;;;;;;;;;10531377;28;20020;-56
2023/12/26 15:17:52;;;;;;;11.10;9.57;;;;;;;;;;10536162;28;20046;-52
2023/12/26 15:22:52;;;;;;;11.70;9.02;;;;;;;;;;10538713;28;20059;-55
2023/12/26 15:27:53;;;;;;;11.60;9.43;;;;;;;;;;10538087;28;20020;-51
2023/12/26 15:32:53;;;;;;;11.63;9.40;;;;;;;;;;10538060;28;20028;-52
2023/12/26 15:37:54;;;;;;;13.48;9.30;;;;;;;;;;10538451;28;20039;-52
2023/12/26 15:42:54;;;;;;;11.77;8.93;;;;;;;;;;10537862;28;20035;-55
2023/12/26 15:47:55;;;;;;;10.70;9.23;;;;;;;;;;10537668;28;20027;-52
2023/12/26 15:52:56;;;;;;;12.88;9.90;;;;;;;;;;10537989;28;20050;-52
2023/12/26 15:57:57;;;;;;;13.23;9.65;;;;;;;;;;10537442;28;20467;-52
2023/12/26 16:02:57;;;;;;;10.80;9.18;;;;;;;;;;10536981;28;20120;-52
2023/12/26 16:07:58;;;;;;;11.52;9.50;;;;;;;;;;10537184;28;20039;-56
2023/12/26 16:12:58;;;;;;;12.00;9.82;;;;;;;;;;10536604;28;20024;-52
2023/12/26 16:17:59;;;;;;;12.43;9.70;;;;;;;;;;10537344;28;20035;-52
2023/12/26 16:23:05;;;;;;;13.80;10.02;;;;;;;;;;10536231;28;20498;-52
2023/12/26 16:28:06;;;;;;;14.38;10.38;;;;;;;;;;10536270;28;20040;-52
2023/12/26 16:33:07;;;;;;;11.60;9.90;;;;;;;;;;10536297;28;20032;-49
2023/12/26 16:38:07;;;;;;;12.20;10.07;;;;;;;;;;10535595;28;20394;-50
2023/12/26 16:43:08;;;;;;;15.23;11.15;;;;;;;;;;10535602;28;20021;-49
2023/12/26 16:48:09;;;;;;;12.55;10.55;;;;;;;;;;10535258;28;20406;-53
2023/12/26 16:53:09;;;;;;;13.95;11.05;;;;;;;;;;10535560;28;20036;-52
2023/12/26 16:58:10;;;;;;;16.42;11.48;;;;;;;;;;10534756;28;20082;-49
2023/12/26 17:03:10;;;;;;;13.18;10.85;;;;;;;;;;10534563;28;20048;-51
2023/12/26 17:08:11;;;;;;;11.57;10.27;;;;;;;;;;10534946;28;20491;-52
2023/12/26 17:13:12;;;;;;;13.98;10.77;;;;;;;;;;10534802;28;20063;-52
2023/12/26 17:18:12;;;;;;;14.43;10.80;;;;;;;;;;10534354;28;20020;-52
2023/12/26 17:23:13;;;;;;;15.13;10.73;;;;;;;;;;10533938;28;20391;-52
2023/12/26 17:28:14;;;;;;;14.32;10.55;;;;;;;;;;10534127;28;20115;-52
2023/12/26 17:33:14;;;;;;;13.68;10.77;;;;;;;;;;10533473;28;20031;-51
2023/12/26 17:38:15;;;;;;;13.57;9.68;;;;;;;;;;10532313;28;20036;-51
2023/12/26 17:43:16;;;;;;;13.30;9.77;;;;;;;;;;10532835;28;20103;-55
2023/12/26 17:48:17;;;;;;;12.25;10.35;;;;;;;;;;10531939;28;20024;-56
2023/12/26 17:53:18;;;;;;;14.77;10.32;;;;;;;;;;10532676;28;20301;-54
2023/12/26 17:58:19;;;;;;;13.25;9.93;;;;;;;;;;10533037;28;20028;-56
2023/12/26 18:03:20;;;;;;;12.15;10.30;;;;;;;;;;10531379;28;20072;-55
2023/12/26 18:08:21;;;;;;;14.80;10.40;;;;;;;;;;10532027;28;20063;-55
2023/12/26 18:13:22;;;;;;;14.77;10.50;;;;;;;;;;10533310;28;20020;-56
2023/12/26 18:18:23;;;;;;;14.88;10.70;;;;;;;;;;10532106;28;20368;-55
2023/12/26 18:23:25;;;;;;;13.00;9.82;;;;;;;;;;10531940;28;20074;-55
2023/12/26 18:28:25;;;;;;;11.98;10.00;;;;;;;;;;10531745;28;20452;-55
2023/12/26 18:33:26;;;;;;;16.60;11.63;;;;;;;;;;10531401;28;20025;-51
2023/12/26 18:38:27;;;;;;;17.83;11.48;;;;;;;;;;10530899;28;20059;-51
2023/12/26 18:43:27;;;;;;;16.73;11.88;;;;;;;;;;10530485;28;20028;-52
2023/12/26 18:48:28;;;;;;;15.95;11.45;;;;;;;;;;10532098;28;20028;-49
2023/12/26 18:53:29;;;;;;;15.90;10.55;;;;;;;;;;10540310;28;20412;-51
2023/12/26 18:58:30;;;;;;;28.48;11.40;;;;;;;;;;10540124;28;20538;-58
2023/12/26 19:03:31;;;;;;;24.70;11.27;;;;;;;;;;10539210;28;20048;-54
2023/12/26 19:08:32;;;;;;;19.52;11.90;;;;;;;;;;10538505;28;20491;-54
2023/12/26 19:13:33;;;;;;;23.02;11.52;;;;;;;;;;10539061;28;20028;-54
2023/12/26 19:18:34;;;;;;;30.77;11.73;;;;;;;;;;10538323;28;20103;-59
2023/12/26 19:23:35;;;;;;;18.77;11.38;;;;;;;;;;10539364;28;20111;-58
2023/12/26 19:28:36;;;;;;;17.85;11.82;;;;;;;;;;10538327;28;20039;-56
2023/12/26 19:33:36;;;;;;;16.63;11.43;;;;;;;;;;10538301;28;20024;-57
2023/12/26 19:38:38;;;;;;;18.17;11.73;;;;;;;;;;10537779;28;20077;-56
2023/12/26 19:43:39;;;;;;;15.02;11.70;;;;;;;;;;10538206;28;20035;-58
2023/12/26 19:48:40;;;;;;;20.63;11.70;;;;;;;;;;10537779;28;20448;-58
2023/12/26 19:53:40;;;;;;;21.63;11.98;;;;;;;;;;10536590;28;20027;-57
2023/12/26 19:58:41;;;;;;;25.13;12.35;;;;;;;;;;10530157;28;20035;-58
2023/12/26 20:03:41;;;;;;;22.67;12.15;;;;;;;;;;10533229;28;20461;-57
2023/12/26 20:08:42;;;;;;;28.05;12.45;;;;;;;;;;10535018;28;20031;-56
2023/12/26 20:13:44;;;;;;;20.40;12.73;;;;;;;;;;10536365;28;20455;-58
2023/12/26 20:18:45;;;;;;;18.73;13.10;;;;;;;;;;10535616;28;20036;-58
2023/12/26 20:23:45;;;;;;;22.38;13.20;;;;;;;;;;10518469;28;20024;-56
2023/12/26 20:28:46;;;;;;;20.13;12.90;;;;;;;;;;10536214;28;20086;-56
2023/12/26 20:33:48;;;;;;;20.30;12.75;;;;;;;;;;10536236;28;20468;-58
2023/12/26 20:38:49;;;;;;;17.80;11.98;;;;;;;;;;10535266;28;20094;-55
2023/12/26 20:43:49;;;;;;;18.02;12.82;;;;;;;;;;10535582;28;20024;-56
2023/12/26 20:48:50;;;;;;;17.67;12.85;;;;;;;;;;10535641;28;20028;-56
2023/12/26 20:53:50;;;;;;;18.05;11.77;;;;;;;;;;10535238;28;20097;-58
2023/12/26 20:58:51;;;;;;;17.95;12.45;;;;;;;;;;10535449;28;20031;-56
2023/12/26 21:03:52;;;;;;;18.33;12.65;;;;;;;;;;10534787;28;20020;-57
2023/12/26 21:08:53;;;;;;;18.45;12.68;;;;;;;;;;10535355;28;20028;-55
2023/12/26 21:13:56;;;;;;;19.55;13.05;;;;;;;;;;10533518;28;20413;-57
2023/12/26 21:18:56;;;;;;;16.20;12.38;;;;;;;;;;10534120;28;20028;-56
2023/12/26 21:23:57;;;;;;;18.45;13.23;;;;;;;;;;10535238;28;20032;-56
2023/12/26 21:28:58;;;;;;;16.65;12.75;;;;;;;;;;10534418;28;20103;-55
2023/12/26 21:33:58;;;;;;;17.67;12.93;;;;;;;;;;10532425;28;20020;-53
2023/12/26 21:38:59;;;;;;;19.00;13.13;;;;;;;;;;10533434;28;20032;-48
2023/12/26 21:44:00;;;;;;;18.08;13.60;;;;;;;;;;10533423;28;20433;-52
2023/12/26 21:49:02;;;;;;;22.75;13.77;;;;;;;;;;10533741;28;20085;-56
2023/12/26 21:54:03;;;;;;;15.60;12.50;;;;;;;;;;10533854;28;20020;-47
2023/12/26 21:59:03;;;;;;;16.40;12.20;;;;;;;;;;10532733;28;20047;-56
2023/12/26 22:04:04;;;;;;;18.98;12.52;;;;;;;;;;10533301;28;20035;-56
2023/12/26 22:09:05;;;;;;;17.50;12.70;;;;;;;;;;10532565;28;20114;-58
2023/12/26 22:14:05;;;;;;;17.60;13.00;;;;;;;;;;10531994;28;20020;-55
2023/12/26 22:19:06;;;;;;;15.75;13.00;;;;;;;;;;10532277;28;20028;-55
2023/12/26 22:24:07;;;;;;;22.30;12.93;;;;;;;;;;10533787;28;20032;-56
2023/12/26 22:29:08;;;;;;;14.82;12.52;;;;;;;;;;10541022;28;20031;-53
2023/12/26 22:34:12;;;;;;;17.33;12.70;;;;;;;;;;10540631;28;20372;-55
2023/12/26 22:39:14;;;;;;;22.52;12.95;;;;;;;;;;10540888;28;20032;-56
2023/12/26 22:44:14;;;;;;;18.65;12.57;;;;;;;;;;10540866;28;20032;-56
2023/12/26 22:49:15;;;;;;;15.57;12.50;;;;;;;;;;10540641;28;20401;-55
2023/12/26 22:54:18;;;;;;;16.33;12.30;;;;;;;;;;10540041;28;20020;-54
2023/12/26 22:59:18;;;;;;;17.35;12.50;;;;;;;;;;10539739;28;20123;-53
2023/12/26 23:04:19;;;;;;;16.33;12.27;;;;;;;;;;10538954;28;20024;-54
2023/12/26 23:09:19;;;;;;;13.90;12.45;;;;;;;;;;10539809;28;20082;-54
2023/12/26 23:14:20;;;;;;;19.40;12.60;;;;;;;;;;10539359;28;20087;-55
2023/12/26 23:19:20;;;;;;;14.73;12.15;;;;;;;;;;10538802;28;20035;-54
2023/12/26 23:24:21;;;;;;;15.50;12.48;;;;;;;;;;10538857;28;20020;-54
2023/12/26 23:29:22;;;;;;;15.85;12.95;;;;;;;;;;10537694;28;20032;-55
2023/12/26 23:34:22;;;;;;;14.30;12.02;;;;;;;;;;10538737;28;20084;-52
2023/12/26 23:39:23;;;;;;;16.70;11.93;;;;;;;;;;10536453;28;20418;-54
2023/12/26 23:44:23;;;;;;;21.13;12.15;;;;;;;;;;10538016;28;20395;-54
2023/12/26 23:49:24;;;;;;;14.40;12.20;;;;;;;;;;10537764;28;20501;-55
2023/12/26 23:54:25;;;;;;;16.75;12.95;;;;;;;;;;10537716;28;20418;-54
2023/12/26 23:59:26;;;;;;;14.85;12.30;;;;;;;;;;10537183;28;20036;-56
